sensor_id;sensor_type;location;lat;lon;timestamp;P1;durP1;ratioP1;P2;durP2;ratioP2
8665;SDS011;4370;48.916;8.380;2022-07-22T00:02:21;8.70;;;7.90;;
8665;SDS011;4370;48.916;8.380;2022-07-22T00:04:46;9.77;;;7.73;;
8665;SDS011;4370;48.916;8.380;2022-07-22T00:07:12;8.93;;;7.60;;
8665;SDS011;4370;48.916;8.380;2022-07-22T00:09:38;8.20;;;7.33;;
8665;SDS011;4370;48.916;8.380;2022-07-22T00:12:04;7.67;;;6.73;;
8665;SDS011;4370;48.916;8.380;2022-07-22T00:14:30;9.60;;;7.80;;
8665;SDS011;4370;48.916;8.380;2022-07-22T00:16:55;8.43;;;7.63;;
8665;SDS011;4370;48.916;8.380;2022-07-22T00:19:21;9.23;;;7.90;;
8665;SDS011;4370;48.916;8.380;2022-07-22T00:21:49;8.53;;;7.73;;
8665;SDS011;4370;48.916;8.380;2022-07-22T00:24:14;8.40;;;7.57;;
8665;SDS011;4370;48.916;8.380;2022-07-22T00:26:40;8.93;;;7.80;;
8665;SDS011;4370;48.916;8.380;2022-07-22T00:29:05;7.90;;;7.20;;
8665;SDS011;4370;48.916;8.380;2022-07-22T00:31:31;8.63;;;7.73;;
8665;SDS011;4370;48.916;8.380;2022-07-22T00:33:56;8.07;;;7.37;;
8665;SDS011;4370;48.916;8.380;2022-07-22T00:36:24;10.40;;;8.03;;
8665;SDS011;4370;48.916;8.380;2022-07-22T00:38:50;7.37;;;6.67;;
8665;SDS011;4370;48.916;8.380;2022-07-22T00:41:15;8.90;;;8.00;;
8665;SDS011;4370;48.916;8.380;2022-07-22T00:43:51;9.33;;;8.27;;
8665;SDS011;4370;48.916;8.380;2022-07-22T00:46:19;8.20;;;7.47;;
8665;SDS011;4370;48.916;8.380;2022-07-22T00:48:44;9.17;;;8.00;;
8665;SDS011;4370;48.916;8.380;2022-07-22T00:51:10;8.53;;;7.60;;
8665;SDS011;4370;48.916;8.380;2022-07-22T00:53:36;9.30;;;8.13;;
8665;SDS011;4370;48.916;8.380;2022-07-22T00:56:02;10.33;;;8.17;;
8665;SDS011;4370;48.916;8.380;2022-07-22T00:58:28;9.63;;;8.53;;
8665;SDS011;4370;48.916;8.380;2022-07-22T01:00:54;9.77;;;8.83;;
8665;SDS011;4370;48.916;8.380;2022-07-22T01:03:20;9.93;;;8.70;;
8665;SDS011;4370;48.916;8.380;2022-07-22T01:05:46;10.60;;;8.77;;
8665;SDS011;4370;48.916;8.380;2022-07-22T01:08:11;9.70;;;8.70;;
8665;SDS011;4370;48.916;8.380;2022-07-22T01:10:37;10.40;;;8.30;;
8665;SDS011;4370;48.916;8.380;2022-07-22T01:13:02;9.33;;;8.50;;
8665;SDS011;4370;48.916;8.380;2022-07-22T01:15:28;9.30;;;8.37;;
8665;SDS011;4370;48.916;8.380;2022-07-22T01:17:53;9.37;;;8.47;;
8665;SDS011;4370;48.916;8.380;2022-07-22T01:20:19;11.77;;;8.70;;
8665;SDS011;4370;48.916;8.380;2022-07-22T01:22:44;10.60;;;9.50;;
8665;SDS011;4370;48.916;8.380;2022-07-22T01:25:10;10.13;;;9.23;;
8665;SDS011;4370;48.916;8.380;2022-07-22T01:27:36;9.83;;;8.93;;
8665;SDS011;4370;48.916;8.380;2022-07-22T01:30:04;10.47;;;9.20;;
8665;SDS011;4370;48.916;8.380;2022-07-22T01:32:30;10.63;;;8.93;;
8665;SDS011;4370;48.916;8.380;2022-07-22T01:34:56;9.23;;;8.37;;
8665;SDS011;4370;48.916;8.380;2022-07-22T01:37:21;9.03;;;8.13;;
8665;SDS011;4370;48.916;8.380;2022-07-22T01:39:47;10.03;;;9.03;;
8665;SDS011;4370;48.916;8.380;2022-07-22T01:42:13;9.33;;;8.53;;
8665;SDS011;4370;48.916;8.380;2022-07-22T01:44:39;9.80;;;8.90;;
8665;SDS011;4370;48.916;8.380;2022-07-22T01:47:04;12.33;;;9.83;;
8665;SDS011;4370;48.916;8.380;2022-07-22T01:49:30;13.43;;;9.97;;
8665;SDS011;4370;48.916;8.380;2022-07-22T01:51:55;10.30;;;9.03;;
8665;SDS011;4370;48.916;8.380;2022-07-22T01:54:21;12.57;;;10.13;;
8665;SDS011;4370;48.916;8.380;2022-07-22T01:56:47;10.30;;;9.23;;
8665;SDS011;4370;48.916;8.380;2022-07-22T01:59:12;10.27;;;9.23;;
8665;SDS011;4370;48.916;8.380;2022-07-22T02:01:38;9.67;;;8.70;;
8665;SDS011;4370;48.916;8.380;2022-07-22T02:04:04;10.83;;;9.10;;
8665;SDS011;4370;48.916;8.380;2022-07-22T02:06:29;10.00;;;9.03;;
8665;SDS011;4370;48.916;8.380;2022-07-22T02:08:56;9.70;;;8.80;;
8665;SDS011;4370;48.916;8.380;2022-07-22T02:11:21;10.63;;;9.37;;
8665;SDS011;4370;48.916;8.380;2022-07-22T02:13:47;11.97;;;9.07;;
8665;SDS011;4370;48.916;8.380;2022-07-22T02:16:12;9.80;;;8.80;;
8665;SDS011;4370;48.916;8.380;2022-07-22T02:18:38;11.30;;;10.10;;
8665;SDS011;4370;48.916;8.380;2022-07-22T02:21:04;10.57;;;9.50;;
8665;SDS011;4370;48.916;8.380;2022-07-22T02:23:29;11.80;;;9.70;;
8665;SDS011;4370;48.916;8.380;2022-07-22T02:25:55;10.87;;;9.10;;
8665;SDS011;4370;48.916;8.380;2022-07-22T02:28:21;10.33;;;9.13;;
8665;SDS011;4370;48.916;8.380;2022-07-22T02:30:47;10.13;;;9.23;;
8665;SDS011;4370;48.916;8.380;2022-07-22T02:33:13;11.90;;;10.07;;
8665;SDS011;4370;48.916;8.380;2022-07-22T02:35:39;11.67;;;10.47;;
8665;SDS011;4370;48.916;8.380;2022-07-22T02:38:05;10.30;;;9.30;;
8665;SDS011;4370;48.916;8.380;2022-07-22T02:40:32;12.67;;;9.53;;
8665;SDS011;4370;48.916;8.380;2022-07-22T02:42:58;10.07;;;9.13;;
8665;SDS011;4370;48.916;8.380;2022-07-22T02:45:24;12.10;;;10.30;;
8665;SDS011;4370;48.916;8.380;2022-07-22T02:47:51;10.33;;;9.30;;
8665;SDS011;4370;48.916;8.380;2022-07-22T02:50:18;9.83;;;8.93;;
8665;SDS011;4370;48.916;8.380;2022-07-22T02:52:44;11.00;;;9.83;;
8665;SDS011;4370;48.916;8.380;2022-07-22T02:55:10;10.77;;;9.67;;
8665;SDS011;4370;48.916;8.380;2022-07-22T02:57:36;12.33;;;10.47;;
8665;SDS011;4370;48.916;8.380;2022-07-22T03:00:02;12.63;;;10.73;;
8665;SDS011;4370;48.916;8.380;2022-07-22T03:02:29;11.60;;;9.93;;
8665;SDS011;4370;48.916;8.380;2022-07-22T03:04:55;11.40;;;10.20;;
8665;SDS011;4370;48.916;8.380;2022-07-22T03:07:20;11.53;;;10.17;;
8665;SDS011;4370;48.916;8.380;2022-07-22T03:09:46;10.93;;;9.10;;
8665;SDS011;4370;48.916;8.380;2022-07-22T03:12:12;13.67;;;11.00;;
8665;SDS011;4370;48.916;8.380;2022-07-22T03:14:38;10.60;;;9.57;;
8665;SDS011;4370;48.916;8.380;2022-07-22T03:17:04;10.73;;;9.70;;
8665;SDS011;4370;48.916;8.380;2022-07-22T03:19:29;12.83;;;10.33;;
8665;SDS011;4370;48.916;8.380;2022-07-22T03:21:55;10.60;;;9.50;;
8665;SDS011;4370;48.916;8.380;2022-07-22T03:24:20;10.53;;;9.47;;
8665;SDS011;4370;48.916;8.380;2022-07-22T03:26:46;9.97;;;9.03;;
8665;SDS011;4370;48.916;8.380;2022-07-22T03:29:12;11.60;;;10.43;;
8665;SDS011;4370;48.916;8.380;2022-07-22T03:31:37;11.93;;;10.23;;
8665;SDS011;4370;48.916;8.380;2022-07-22T03:34:03;11.97;;;10.23;;
8665;SDS011;4370;48.916;8.380;2022-07-22T03:36:29;13.80;;;11.93;;
8665;SDS011;4370;48.916;8.380;2022-07-22T03:38:54;12.40;;;10.93;;
8665;SDS011;4370;48.916;8.380;2022-07-22T03:41:20;12.07;;;10.87;;
8665;SDS011;4370;48.916;8.380;2022-07-22T03:43:46;11.73;;;10.27;;
8665;SDS011;4370;48.916;8.380;2022-07-22T03:46:12;11.40;;;10.20;;
8665;SDS011;4370;48.916;8.380;2022-07-22T03:48:37;12.23;;;10.90;;
8665;SDS011;4370;48.916;8.380;2022-07-22T03:51:03;10.60;;;9.53;;
8665;SDS011;4370;48.916;8.380;2022-07-22T03:53:29;12.33;;;11.00;;
8665;SDS011;4370;48.916;8.380;2022-07-22T03:55:57;10.77;;;9.60;;
8665;SDS011;4370;48.916;8.380;2022-07-22T03:58:23;11.47;;;10.27;;
8665;SDS011;4370;48.916;8.380;2022-07-22T04:00:49;11.70;;;10.57;;
8665;SDS011;4370;48.916;8.380;2022-07-22T04:03:15;14.40;;;11.47;;
8665;SDS011;4370;48.916;8.380;2022-07-22T04:05:40;12.97;;;11.40;;
8665;SDS011;4370;48.916;8.380;2022-07-22T04:08:06;15.17;;;11.90;;
8665;SDS011;4370;48.916;8.380;2022-07-22T04:10:32;13.03;;;11.47;;
8665;SDS011;4370;48.916;8.380;2022-07-22T04:12:58;13.63;;;11.37;;
8665;SDS011;4370;48.916;8.380;2022-07-22T04:15:24;13.93;;;11.30;;
8665;SDS011;4370;48.916;8.380;2022-07-22T04:17:49;13.10;;;11.47;;
8665;SDS011;4370;48.916;8.380;2022-07-22T04:20:15;11.87;;;10.57;;
8665;SDS011;4370;48.916;8.380;2022-07-22T04:22:40;13.23;;;10.90;;
8665;SDS011;4370;48.916;8.380;2022-07-22T04:25:06;12.27;;;10.57;;
8665;SDS011;4370;48.916;8.380;2022-07-22T04:27:32;11.60;;;10.37;;
8665;SDS011;4370;48.916;8.380;2022-07-22T04:29:58;11.97;;;10.87;;
8665;SDS011;4370;48.916;8.380;2022-07-22T04:32:23;12.07;;;10.63;;
8665;SDS011;4370;48.916;8.380;2022-07-22T04:34:49;13.00;;;10.83;;
8665;SDS011;4370;48.916;8.380;2022-07-22T04:37:14;12.80;;;10.80;;
8665;SDS011;4370;48.916;8.380;2022-07-22T04:39:40;11.67;;;10.47;;
8665;SDS011;4370;48.916;8.380;2022-07-22T04:42:06;11.17;;;10.03;;
8665;SDS011;4370;48.916;8.380;2022-07-22T04:44:31;11.57;;;9.70;;
8665;SDS011;4370;48.916;8.380;2022-07-22T04:46:57;10.43;;;9.43;;
8665;SDS011;4370;48.916;8.380;2022-07-22T04:49:22;10.43;;;9.33;;
8665;SDS011;4370;48.916;8.380;2022-07-22T04:51:48;11.10;;;9.90;;
8665;SDS011;4370;48.916;8.380;2022-07-22T04:54:13;10.13;;;9.17;;
8665;SDS011;4370;48.916;8.380;2022-07-22T04:56:39;11.03;;;9.83;;
8665;SDS011;4370;48.916;8.380;2022-07-22T04:59:04;10.17;;;9.17;;
8665;SDS011;4370;48.916;8.380;2022-07-22T05:01:30;10.03;;;9.10;;
8665;SDS011;4370;48.916;8.380;2022-07-22T05:03:55;11.90;;;9.57;;
8665;SDS011;4370;48.916;8.380;2022-07-22T05:06:21;9.83;;;8.67;;
8665;SDS011;4370;48.916;8.380;2022-07-22T05:08:47;10.73;;;9.37;;
8665;SDS011;4370;48.916;8.380;2022-07-22T05:11:12;10.40;;;9.27;;
8665;SDS011;4370;48.916;8.380;2022-07-22T05:13:38;10.63;;;9.47;;
8665;SDS011;4370;48.916;8.380;2022-07-22T05:16:04;11.70;;;9.60;;
8665;SDS011;4370;48.916;8.380;2022-07-22T05:18:30;11.33;;;9.47;;
8665;SDS011;4370;48.916;8.380;2022-07-22T05:20:56;12.97;;;9.50;;
8665;SDS011;4370;48.916;8.380;2022-07-22T05:23:22;9.83;;;8.80;;
8665;SDS011;4370;48.916;8.380;2022-07-22T05:25:47;9.57;;;7.80;;
8665;SDS011;4370;48.916;8.380;2022-07-22T05:28:12;10.57;;;8.60;;
8665;SDS011;4370;48.916;8.380;2022-07-22T05:30:38;9.97;;;8.20;;
8665;SDS011;4370;48.916;8.380;2022-07-22T05:33:04;10.97;;;8.47;;
8665;SDS011;4370;48.916;8.380;2022-07-22T05:35:29;10.37;;;9.07;;
8665;SDS011;4370;48.916;8.380;2022-07-22T05:37:55;10.67;;;8.30;;
8665;SDS011;4370;48.916;8.380;2022-07-22T05:40:21;10.70;;;8.60;;
8665;SDS011;4370;48.916;8.380;2022-07-22T05:42:46;11.97;;;8.87;;
8665;SDS011;4370;48.916;8.380;2022-07-22T05:45:12;9.53;;;8.43;;
8665;SDS011;4370;48.916;8.380;2022-07-22T05:47:37;9.37;;;8.00;;
8665;SDS011;4370;48.916;8.380;2022-07-22T05:50:03;10.33;;;8.43;;
8665;SDS011;4370;48.916;8.380;2022-07-22T05:52:29;9.30;;;8.30;;
8665;SDS011;4370;48.916;8.380;2022-07-22T05:54:55;8.07;;;7.27;;
8665;SDS011;4370;48.916;8.380;2022-07-22T05:57:21;11.07;;;8.37;;
8665;SDS011;4370;48.916;8.380;2022-07-22T05:59:46;10.03;;;8.97;;
8665;SDS011;4370;48.916;8.380;2022-07-22T06:02:12;13.63;;;7.90;;
8665;SDS011;4370;48.916;8.380;2022-07-22T06:04:37;9.50;;;8.17;;
8665;SDS011;4370;48.916;8.380;2022-07-22T06:07:03;10.30;;;7.93;;
8665;SDS011;4370;48.916;8.380;2022-07-22T06:09:31;10.57;;;7.83;;
8665;SDS011;4370;48.916;8.380;2022-07-22T06:11:56;10.50;;;7.40;;
8665;SDS011;4370;48.916;8.380;2022-07-22T06:14:22;9.33;;;7.07;;
8665;SDS011;4370;48.916;8.380;2022-07-22T06:16:47;11.38;;;7.70;;
8665;SDS011;4370;48.916;8.380;2022-07-22T06:19:13;8.02;;;6.28;;
8665;SDS011;4370;48.916;8.380;2022-07-22T06:21:39;7.50;;;6.50;;
8665;SDS011;4370;48.916;8.380;2022-07-22T06:24:04;6.75;;;6.07;;
8665;SDS011;4370;48.916;8.380;2022-07-22T06:26:30;7.93;;;6.10;;
8665;SDS011;4370;48.916;8.380;2022-07-22T06:28:55;6.13;;;5.50;;
8665;SDS011;4370;48.916;8.380;2022-07-22T06:31:21;8.90;;;6.10;;
8665;SDS011;4370;48.916;8.380;2022-07-22T06:33:46;6.68;;;5.90;;
8665;SDS011;4370;48.916;8.380;2022-07-22T06:36:12;6.18;;;5.35;;
8665;SDS011;4370;48.916;8.380;2022-07-22T06:38:39;8.13;;;5.20;;
8665;SDS011;4370;48.916;8.380;2022-07-22T06:41:04;6.40;;;5.32;;
8665;SDS011;4370;48.916;8.380;2022-07-22T06:43:30;7.47;;;5.47;;
8665;SDS011;4370;48.916;8.380;2022-07-22T06:45:55;6.00;;;4.93;;
8665;SDS011;4370;48.916;8.380;2022-07-22T06:48:21;6.25;;;5.32;;
8665;SDS011;4370;48.916;8.380;2022-07-22T06:50:47;6.93;;;5.28;;
8665;SDS011;4370;48.916;8.380;2022-07-22T06:53:12;8.02;;;5.35;;
8665;SDS011;4370;48.916;8.380;2022-07-22T06:55:38;6.10;;;5.50;;
8665;SDS011;4370;48.916;8.380;2022-07-22T06:58:04;6.00;;;5.22;;
8665;SDS011;4370;48.916;8.380;2022-07-22T07:00:29;7.78;;;5.40;;
8665;SDS011;4370;48.916;8.380;2022-07-22T07:02:57;7.03;;;5.47;;
8665;SDS011;4370;48.916;8.380;2022-07-22T07:05:24;6.25;;;5.22;;
8665;SDS011;4370;48.916;8.380;2022-07-22T07:07:50;6.90;;;5.22;;
8665;SDS011;4370;48.916;8.380;2022-07-22T07:10:15;5.88;;;5.10;;
8665;SDS011;4370;48.916;8.380;2022-07-22T07:12:41;7.72;;;4.95;;
8665;SDS011;4370;48.916;8.380;2022-07-22T07:15:07;5.30;;;4.80;;
8665;SDS011;4370;48.916;8.380;2022-07-22T07:17:33;5.53;;;5.03;;
8665;SDS011;4370;48.916;8.380;2022-07-22T07:19:59;7.88;;;5.00;;
8665;SDS011;4370;48.916;8.380;2022-07-22T07:22:24;5.30;;;4.80;;
8665;SDS011;4370;48.916;8.380;2022-07-22T07:24:50;6.40;;;5.20;;
8665;SDS011;4370;48.916;8.380;2022-07-22T07:27:16;5.93;;;4.88;;
8665;SDS011;4370;48.916;8.380;2022-07-22T07:29:42;6.38;;;5.10;;
8665;SDS011;4370;48.916;8.380;2022-07-22T07:32:07;5.85;;;4.72;;
8665;SDS011;4370;48.916;8.380;2022-07-22T07:34:33;5.30;;;4.80;;
8665;SDS011;4370;48.916;8.380;2022-07-22T07:36:58;5.50;;;5.00;;
8665;SDS011;4370;48.916;8.380;2022-07-22T07:39:24;7.32;;;5.72;;
8665;SDS011;4370;48.916;8.380;2022-07-22T07:41:50;5.38;;;4.82;;
8665;SDS011;4370;48.916;8.380;2022-07-22T07:44:16;6.65;;;4.97;;
8665;SDS011;4370;48.916;8.380;2022-07-22T07:46:42;5.47;;;4.90;;
8665;SDS011;4370;48.916;8.380;2022-07-22T07:49:08;5.63;;;4.95;;
8665;SDS011;4370;48.916;8.380;2022-07-22T07:51:34;5.90;;;4.82;;
8665;SDS011;4370;48.916;8.380;2022-07-22T07:53:59;5.72;;;5.22;;
8665;SDS011;4370;48.916;8.380;2022-07-22T07:56:25;5.43;;;4.93;;
8665;SDS011;4370;48.916;8.380;2022-07-22T07:58:51;6.05;;;4.95;;
8665;SDS011;4370;48.916;8.380;2022-07-22T08:01:16;7.70;;;5.13;;
8665;SDS011;4370;48.916;8.380;2022-07-22T08:03:41;5.53;;;4.57;;
8665;SDS011;4370;48.916;8.380;2022-07-22T08:06:07;5.32;;;4.82;;
8665;SDS011;4370;48.916;8.380;2022-07-22T08:08:33;5.15;;;4.47;;
8665;SDS011;4370;48.916;8.380;2022-07-22T08:10:58;6.68;;;5.15;;
8665;SDS011;4370;48.916;8.380;2022-07-22T08:13:24;5.00;;;4.50;;
8665;SDS011;4370;48.916;8.380;2022-07-22T08:15:50;6.47;;;4.70;;
8665;SDS011;4370;48.916;8.380;2022-07-22T08:18:16;5.20;;;4.60;;
8665;SDS011;4370;48.916;8.380;2022-07-22T08:20:41;7.80;;;5.00;;
8665;SDS011;4370;48.916;8.380;2022-07-22T08:23:07;5.85;;;5.22;;
8665;SDS011;4370;48.916;8.380;2022-07-22T08:25:32;6.53;;;5.57;;
8665;SDS011;4370;48.916;8.380;2022-07-22T08:27:58;6.72;;;5.70;;
8665;SDS011;4370;48.916;8.380;2022-07-22T08:30:24;6.95;;;5.30;;
8665;SDS011;4370;48.916;8.380;2022-07-22T08:32:52;6.65;;;5.53;;
8665;SDS011;4370;48.916;8.380;2022-07-22T08:35:18;8.35;;;6.60;;
8665;SDS011;4370;48.916;8.380;2022-07-22T08:37:43;8.48;;;6.65;;
8665;SDS011;4370;48.916;8.380;2022-07-22T08:40:11;8.15;;;6.93;;
8665;SDS011;4370;48.916;8.380;2022-07-22T08:42:37;7.82;;;6.30;;
8665;SDS011;4370;48.916;8.380;2022-07-22T08:45:04;10.02;;;7.03;;
8665;SDS011;4370;48.916;8.380;2022-07-22T08:47:30;7.70;;;6.10;;
8665;SDS011;4370;48.916;8.380;2022-07-22T08:49:56;7.18;;;6.47;;
8665;SDS011;4370;48.916;8.380;2022-07-22T08:52:22;9.85;;;6.35;;
8665;SDS011;4370;48.916;8.380;2022-07-22T08:54:47;6.97;;;6.28;;
8665;SDS011;4370;48.916;8.380;2022-07-22T08:57:13;9.40;;;6.63;;
8665;SDS011;4370;48.916;8.380;2022-07-22T08:59:52;7.63;;;6.40;;
8665;SDS011;4370;48.916;8.380;2022-07-22T09:02:23;8.25;;;6.00;;
8665;SDS011;4370;48.916;8.380;2022-07-22T09:04:54;7.15;;;6.38;;
8665;SDS011;4370;48.916;8.380;2022-07-22T09:10:13;9.13;;;6.80;;
8665;SDS011;4370;48.916;8.380;2022-07-22T09:12:50;8.07;;;6.30;;
8665;SDS011;4370;48.916;8.380;2022-07-22T09:15:29;7.80;;;6.68;;
8665;SDS011;4370;48.916;8.380;2022-07-22T09:18:03;6.80;;;6.10;;
8665;SDS011;4370;48.916;8.380;2022-07-22T09:20:30;9.88;;;6.78;;
8665;SDS011;4370;48.916;8.380;2022-07-22T09:22:55;8.75;;;7.05;;
8665;SDS011;4370;48.916;8.380;2022-07-22T09:27:55;7.82;;;6.50;;
8665;SDS011;4370;48.916;8.380;2022-07-22T09:30:30;6.32;;;5.78;;
8665;SDS011;4370;48.916;8.380;2022-07-22T09:32:58;7.45;;;6.60;;
8665;SDS011;4370;48.916;8.380;2022-07-22T09:35:24;6.90;;;5.93;;
8665;SDS011;4370;48.916;8.380;2022-07-22T09:40:21;10.38;;;6.20;;
8665;SDS011;4370;48.916;8.380;2022-07-22T09:42:56;7.15;;;6.00;;
8665;SDS011;4370;48.916;8.380;2022-07-22T09:45:23;7.90;;;6.40;;
8665;SDS011;4370;48.916;8.380;2022-07-22T09:47:53;8.15;;;6.50;;
8665;SDS011;4370;48.916;8.380;2022-07-22T09:50:20;7.25;;;6.55;;
8665;SDS011;4370;48.916;8.380;2022-07-22T09:52:48;9.73;;;7.28;;
8665;SDS011;4370;48.916;8.380;2022-07-22T09:55:15;6.75;;;6.00;;
8665;SDS011;4370;48.916;8.380;2022-07-22T09:57:43;8.23;;;6.53;;
8665;SDS011;4370;48.916;8.380;2022-07-22T10:00:10;6.82;;;6.22;;
8665;SDS011;4370;48.916;8.380;2022-07-22T10:02:40;7.70;;;6.43;;
8665;SDS011;4370;48.916;8.380;2022-07-22T10:05:11;7.60;;;5.70;;
8665;SDS011;4370;48.916;8.380;2022-07-22T10:07:40;7.38;;;6.30;;
8665;SDS011;4370;48.916;8.380;2022-07-22T10:10:07;6.85;;;6.15;;
8665;SDS011;4370;48.916;8.380;2022-07-22T10:12:34;9.77;;;6.30;;
8665;SDS011;4370;48.916;8.380;2022-07-22T10:15:02;9.25;;;6.20;;
8665;SDS011;4370;48.916;8.380;2022-07-22T10:17:27;10.73;;;6.40;;
8665;SDS011;4370;48.916;8.380;2022-07-22T10:19:54;8.10;;;5.82;;
8665;SDS011;4370;48.916;8.380;2022-07-22T10:25:04;7.57;;;6.38;;
8665;SDS011;4370;48.916;8.380;2022-07-22T10:30:32;7.78;;;6.15;;
8665;SDS011;4370;48.916;8.380;2022-07-22T10:33:15;7.10;;;6.18;;
8665;SDS011;4370;48.916;8.380;2022-07-22T10:38:25;6.72;;;6.05;;
8665;SDS011;4370;48.916;8.380;2022-07-22T10:41:09;6.93;;;6.30;;
8665;SDS011;4370;48.916;8.380;2022-07-22T10:46:07;7.45;;;6.03;;
8665;SDS011;4370;48.916;8.380;2022-07-22T10:56:34;12.48;;;6.10;;
8665;SDS011;4370;48.916;8.380;2022-07-22T10:59:10;7.90;;;6.50;;
8665;SDS011;4370;48.916;8.380;2022-07-22T11:01:44;7.95;;;6.18;;
8665;SDS011;4370;48.916;8.380;2022-07-22T11:06:42;7.93;;;5.82;;
8665;SDS011;4370;48.916;8.380;2022-07-22T11:09:10;7.20;;;5.60;;
8665;SDS011;4370;48.916;8.380;2022-07-22T11:11:41;7.32;;;5.65;;
8665;SDS011;4370;48.916;8.380;2022-07-22T11:14:18;7.60;;;6.05;;
8665;SDS011;4370;48.916;8.380;2022-07-22T11:16:45;6.97;;;6.05;;
8665;SDS011;4370;48.916;8.380;2022-07-22T11:19:12;7.80;;;5.80;;
8665;SDS011;4370;48.916;8.380;2022-07-22T11:21:38;6.65;;;5.97;;
8665;SDS011;4370;48.916;8.380;2022-07-22T11:24:06;7.25;;;6.10;;
8665;SDS011;4370;48.916;8.380;2022-07-22T11:26:40;7.18;;;5.80;;
8665;SDS011;4370;48.916;8.380;2022-07-22T11:29:07;9.05;;;6.13;;
8665;SDS011;4370;48.916;8.380;2022-07-22T11:31:34;9.30;;;6.40;;
8665;SDS011;4370;48.916;8.380;2022-07-22T11:34:09;8.40;;;6.05;;
8665;SDS011;4370;48.916;8.380;2022-07-22T11:36:39;8.82;;;6.28;;
8665;SDS011;4370;48.916;8.380;2022-07-22T11:39:07;7.50;;;6.20;;
8665;SDS011;4370;48.916;8.380;2022-07-22T11:41:34;6.53;;;5.82;;
8665;SDS011;4370;48.916;8.380;2022-07-22T11:44:00;6.45;;;5.75;;
8665;SDS011;4370;48.916;8.380;2022-07-22T11:46:26;9.10;;;6.00;;
8665;SDS011;4370;48.916;8.380;2022-07-22T11:48:52;7.15;;;5.97;;
8665;SDS011;4370;48.916;8.380;2022-07-22T11:51:19;7.75;;;6.38;;
8665;SDS011;4370;48.916;8.380;2022-07-22T11:53:45;8.55;;;6.20;;
8665;SDS011;4370;48.916;8.380;2022-07-22T11:56:11;8.02;;;6.15;;
8665;SDS011;4370;48.916;8.380;2022-07-22T11:58:46;8.85;;;6.15;;
8665;SDS011;4370;48.916;8.380;2022-07-22T12:01:15;8.05;;;6.40;;
8665;SDS011;4370;48.916;8.380;2022-07-22T12:03:44;8.15;;;6.05;;
8665;SDS011;4370;48.916;8.380;2022-07-22T12:06:11;7.18;;;6.10;;
8665;SDS011;4370;48.916;8.380;2022-07-22T12:09:02;8.90;;;6.30;;
8665;SDS011;4370;48.916;8.380;2022-07-22T12:11:28;6.78;;;6.10;;
8665;SDS011;4370;48.916;8.380;2022-07-22T12:13:55;6.85;;;5.68;;
8665;SDS011;4370;48.916;8.380;2022-07-22T12:18:58;7.47;;;5.80;;
8665;SDS011;4370;48.916;8.380;2022-07-22T12:21:49;6.28;;;5.68;;
8665;SDS011;4370;48.916;8.380;2022-07-22T12:24:16;7.15;;;6.15;;
8665;SDS011;4370;48.916;8.380;2022-07-22T12:26:46;8.65;;;6.25;;
8665;SDS011;4370;48.916;8.380;2022-07-22T12:29:17;6.60;;;5.90;;
8665;SDS011;4370;48.916;8.380;2022-07-22T12:31:51;6.65;;;5.85;;
8665;SDS011;4370;48.916;8.380;2022-07-22T12:34:32;8.07;;;6.00;;
8665;SDS011;4370;48.916;8.380;2022-07-22T12:37:01;7.53;;;5.90;;
8665;SDS011;4370;48.916;8.380;2022-07-22T12:39:53;8.00;;;6.22;;
8665;SDS011;4370;48.916;8.380;2022-07-22T12:42:24;9.52;;;6.25;;
8665;SDS011;4370;48.916;8.380;2022-07-22T12:45:14;7.97;;;6.28;;
8665;SDS011;4370;48.916;8.380;2022-07-22T12:52:47;10.85;;;6.60;;
8665;SDS011;4370;48.916;8.380;2022-07-22T12:55:17;10.93;;;6.13;;
8665;SDS011;4370;48.916;8.380;2022-07-22T12:57:43;10.27;;;6.22;;
8665;SDS011;4370;48.916;8.380;2022-07-22T13:00:09;8.15;;;6.13;;
8665;SDS011;4370;48.916;8.380;2022-07-22T13:02:36;6.63;;;5.95;;
8665;SDS011;4370;48.916;8.380;2022-07-22T13:05:02;6.95;;;6.20;;
8665;SDS011;4370;48.916;8.380;2022-07-22T13:07:28;8.18;;;5.95;;
8665;SDS011;4370;48.916;8.380;2022-07-22T13:09:54;6.38;;;5.57;;
8665;SDS011;4370;48.916;8.380;2022-07-22T13:12:19;7.32;;;6.18;;
8665;SDS011;4370;48.916;8.380;2022-07-22T13:14:45;6.53;;;5.85;;
8665;SDS011;4370;48.916;8.380;2022-07-22T13:17:11;5.85;;;5.07;;
8665;SDS011;4370;48.916;8.380;2022-07-22T13:19:37;7.07;;;6.07;;
8665;SDS011;4370;48.916;8.380;2022-07-22T13:22:03;8.48;;;6.10;;
8665;SDS011;4370;48.916;8.380;2022-07-22T13:24:28;7.68;;;6.10;;
8665;SDS011;4370;48.916;8.380;2022-07-22T13:26:54;8.00;;;6.00;;
8665;SDS011;4370;48.916;8.380;2022-07-22T13:29:19;6.50;;;5.90;;
8665;SDS011;4370;48.916;8.380;2022-07-22T13:31:45;11.45;;;6.13;;
8665;SDS011;4370;48.916;8.380;2022-07-22T13:34:11;7.50;;;5.88;;
8665;SDS011;4370;48.916;8.380;2022-07-22T13:36:36;6.55;;;5.88;;
8665;SDS011;4370;48.916;8.380;2022-07-22T13:39:02;6.57;;;5.70;;
8665;SDS011;4370;48.916;8.380;2022-07-22T13:41:29;8.93;;;6.03;;
8665;SDS011;4370;48.916;8.380;2022-07-22T13:43:56;8.45;;;5.78;;
8665;SDS011;4370;48.916;8.380;2022-07-22T13:46:21;9.35;;;5.70;;
8665;SDS011;4370;48.916;8.380;2022-07-22T13:48:47;10.63;;;5.60;;
8665;SDS011;4370;48.916;8.380;2022-07-22T13:51:12;6.10;;;5.50;;
8665;SDS011;4370;48.916;8.380;2022-07-22T13:53:39;6.95;;;5.55;;
8665;SDS011;4370;48.916;8.380;2022-07-22T13:56:05;6.72;;;5.85;;
8665;SDS011;4370;48.916;8.380;2022-07-22T13:58:32;6.50;;;5.55;;
8665;SDS011;4370;48.916;8.380;2022-07-22T14:00:58;6.70;;;6.00;;
8665;SDS011;4370;48.916;8.380;2022-07-22T14:03:24;6.20;;;5.60;;
8665;SDS011;4370;48.916;8.380;2022-07-22T14:05:50;8.15;;;5.72;;
8665;SDS011;4370;48.916;8.380;2022-07-22T14:08:15;9.02;;;5.68;;
8665;SDS011;4370;48.916;8.380;2022-07-22T14:10:41;6.20;;;5.60;;
8665;SDS011;4370;48.916;8.380;2022-07-22T14:13:06;7.93;;;5.50;;
8665;SDS011;4370;48.916;8.380;2022-07-22T14:15:32;7.53;;;5.88;;
8665;SDS011;4370;48.916;8.380;2022-07-22T14:17:58;8.70;;;5.82;;
8665;SDS011;4370;48.916;8.380;2022-07-22T14:20:24;6.57;;;5.93;;
8665;SDS011;4370;48.916;8.380;2022-07-22T14:22:49;8.00;;;5.55;;
8665;SDS011;4370;48.916;8.380;2022-07-22T14:25:15;7.15;;;5.40;;
8665;SDS011;4370;48.916;8.380;2022-07-22T14:27:40;9.07;;;5.55;;
8665;SDS011;4370;48.916;8.380;2022-07-22T14:30:07;7.82;;;5.88;;
8665;SDS011;4370;48.916;8.380;2022-07-22T14:32:32;6.35;;;5.70;;
8665;SDS011;4370;48.916;8.380;2022-07-22T14:34:58;6.55;;;5.85;;
8665;SDS011;4370;48.916;8.380;2022-07-22T14:37:24;6.00;;;5.50;;
8665;SDS011;4370;48.916;8.380;2022-07-22T14:39:50;8.63;;;5.93;;
8665;SDS011;4370;48.916;8.380;2022-07-22T14:42:16;7.13;;;5.93;;
8665;SDS011;4370;48.916;8.380;2022-07-22T14:44:41;8.13;;;5.82;;
8665;SDS011;4370;48.916;8.380;2022-07-22T14:47:07;6.45;;;5.85;;
8665;SDS011;4370;48.916;8.380;2022-07-22T14:49:33;6.20;;;5.70;;
8665;SDS011;4370;48.916;8.380;2022-07-22T14:51:58;8.95;;;6.30;;
8665;SDS011;4370;48.916;8.380;2022-07-22T14:54:24;5.93;;;5.32;;
8665;SDS011;4370;48.916;8.380;2022-07-22T14:56:49;6.90;;;5.78;;
8665;SDS011;4370;48.916;8.380;2022-07-22T14:59:15;6.32;;;5.63;;
8665;SDS011;4370;48.916;8.380;2022-07-22T15:01:40;6.40;;;5.65;;
8665;SDS011;4370;48.916;8.380;2022-07-22T15:04:06;6.47;;;5.50;;
8665;SDS011;4370;48.916;8.380;2022-07-22T15:06:31;6.47;;;5.78;;
8665;SDS011;4370;48.916;8.380;2022-07-22T15:08:57;6.90;;;5.57;;
8665;SDS011;4370;48.916;8.380;2022-07-22T15:11:23;6.30;;;5.70;;
8665;SDS011;4370;48.916;8.380;2022-07-22T15:13:48;6.32;;;5.70;;
8665;SDS011;4370;48.916;8.380;2022-07-22T15:16:14;5.85;;;5.35;;
8665;SDS011;4370;48.916;8.380;2022-07-22T15:18:40;7.40;;;6.28;;
8665;SDS011;4370;48.916;8.380;2022-07-22T15:21:05;8.20;;;5.90;;
8665;SDS011;4370;48.916;8.380;2022-07-22T15:23:31;7.93;;;5.68;;
8665;SDS011;4370;48.916;8.380;2022-07-22T15:26:00;7.00;;;5.78;;
8665;SDS011;4370;48.916;8.380;2022-07-22T15:28:27;6.22;;;5.60;;
8665;SDS011;4370;48.916;8.380;2022-07-22T15:30:55;7.35;;;5.88;;
8665;SDS011;4370;48.916;8.380;2022-07-22T15:33:21;26.55;;;7.68;;
8665;SDS011;4370;48.916;8.380;2022-07-22T15:35:46;9.73;;;5.97;;
8665;SDS011;4370;48.916;8.380;2022-07-22T15:38:12;10.82;;;6.20;;
8665;SDS011;4370;48.916;8.380;2022-07-22T15:40:38;8.13;;;5.80;;
8665;SDS011;4370;48.916;8.380;2022-07-22T15:43:04;6.05;;;5.47;;
8665;SDS011;4370;48.916;8.380;2022-07-22T15:45:31;12.80;;;5.75;;